sensor_id;sensor_type;location;lat;lon;timestamp;pressure;altitude;pressure_sealevel;temperature;humidity
63691;BME280;49837;57.280;27.070;2023-02-11T00:00:47;100043.77;;;-3.3;84.75
63691;BME280;49837;57.280;27.070;2023-02-11T00:01:47;100037.91;;;-3.29;84.37
63691;BME280;49837;57.280;27.070;2023-02-11T00:02:48;100041.7;;;-3.28;84.33
63691;BME280;49837;57.280;27.070;2023-02-11T00:03:50;100038.34;;;-3.24;84.43
63691;BME280;49837;57.280;27.070;2023-02-11T00:04:49;100034.89;;;-3.25;84.47
63691;BME280;49837;57.280;27.070;2023-02-11T00:05:59;100033.67;;;-3.26;84.34
63691;BME280;49837;57.280;27.070;2023-02-11T00:06:52;100029.55;;;-3.28;84.46
63691;BME280;49837;57.280;27.070;2023-02-11T00:07:52;100031.42;;;-3.3;84.48
63691;BME280;49837;57.280;27.070;2023-02-11T00:08:53;100030.77;;;-3.31;84.69
63691;BME280;49837;57.280;27.070;2023-02-11T00:09:56;100026.54;;;-3.35;84.9
63691;BME280;49837;57.280;27.070;2023-02-11T00:10:56;100020.7;;;-3.37;84.93
63691;BME280;49837;57.280;27.070;2023-02-11T00:11:54;100027.79;;;-3.33;84.97
63691;BME280;49837;57.280;27.070;2023-02-11T00:12:55;100023.0;;;-3.29;84.9
63691;BME280;49837;57.280;27.070;2023-02-11T00:13:58;100017.28;;;-3.29;84.93
63691;BME280;49837;57.280;27.070;2023-02-11T00:14:56;100012.88;;;-3.26;84.91
63691;BME280;49837;57.280;27.070;2023-02-11T00:15:56;100017.03;;;-3.26;84.93
63691;BME280;49837;57.280;27.070;2023-02-11T00:16:57;100010.81;;;-3.27;84.84
63691;BME280;49837;57.280;27.070;2023-02-11T00:17:57;100006.94;;;-3.22;84.63
63691;BME280;49837;57.280;27.070;2023-02-11T00:18:59;100004.45;;;-3.2;84.61
63691;BME280;49837;57.280;27.070;2023-02-11T00:19:58;100001.5;;;-3.21;84.67
63691;BME280;49837;57.280;27.070;2023-02-11T00:20:58;100002.75;;;-3.2;84.78
63691;BME280;49837;57.280;27.070;2023-02-11T00:21:59;100003.56;;;-3.2;84.7
63691;BME280;49837;57.280;27.070;2023-02-11T00:22:59;100000.77;;;-3.16;84.73
63691;BME280;49837;57.280;27.070;2023-02-11T00:24:00;99994.89;;;-3.14;84.56
63691;BME280;49837;57.280;27.070;2023-02-11T00:25:00;99994.47;;;-3.17;84.79
63691;BME280;49837;57.280;27.070;2023-02-11T00:26:01;99998.41;;;-3.17;84.83
63691;BME280;49837;57.280;27.070;2023-02-11T00:27:01;99991.66;;;-3.12;84.92
63691;BME280;49837;57.280;27.070;2023-02-11T00:28:01;99992.94;;;-3.14;84.68
63691;BME280;49837;57.280;27.070;2023-02-11T00:29:02;99989.28;;;-3.09;84.71
63691;BME280;49837;57.280;27.070;2023-02-11T00:30:03;99993.34;;;-3.13;84.82
63691;BME280;49837;57.280;27.070;2023-02-11T00:31:04;99989.59;;;-3.13;85.02
63691;BME280;49837;57.280;27.070;2023-02-11T00:32:03;99986.27;;;-3.12;85.13
63691;BME280;49837;57.280;27.070;2023-02-11T00:33:03;99981.75;;;-3.02;84.8
63691;BME280;49837;57.280;27.070;2023-02-11T00:34:04;99979.39;;;-2.99;84.5
63691;BME280;49837;57.280;27.070;2023-02-11T00:35:05;99974.69;;;-3.0;84.54
63691;BME280;49837;57.280;27.070;2023-02-11T00:36:11;99969.03;;;-3.06;84.72
63691;BME280;49837;57.280;27.070;2023-02-11T00:37:09;99965.77;;;-3.06;84.98
63691;BME280;49837;57.280;27.070;2023-02-11T00:38:10;99964.13;;;-3.06;85.02
63691;BME280;49837;57.280;27.070;2023-02-11T00:39:12;99958.52;;;-3.01;84.82
63691;BME280;49837;57.280;27.070;2023-02-11T00:40:11;99957.0;;;-2.96;84.68
63691;BME280;49837;57.280;27.070;2023-02-11T00:41:12;99955.75;;;-3.04;84.99
63691;BME280;49837;57.280;27.070;2023-02-11T00:42:13;99951.03;;;-3.08;85.29
63691;BME280;49837;57.280;27.070;2023-02-11T00:43:12;99949.09;;;-3.11;85.37
63691;BME280;49837;57.280;27.070;2023-02-11T00:44:12;99945.42;;;-3.06;85.23
63691;BME280;49837;57.280;27.070;2023-02-11T00:45:13;99945.91;;;-3.04;85.25
63691;BME280;49837;57.280;27.070;2023-02-11T00:46:13;99939.78;;;-3.04;85.23
63691;BME280;49837;57.280;27.070;2023-02-11T00:47:13;99932.41;;;-3.04;85.41
63691;BME280;49837;57.280;27.070;2023-02-11T00:48:14;99938.42;;;-3.02;85.41
63691;BME280;49837;57.280;27.070;2023-02-11T00:49:14;99930.56;;;-3.03;85.52
63691;BME280;49837;57.280;27.070;2023-02-11T00:50:15;99930.91;;;-3.02;85.65
63691;BME280;49837;57.280;27.070;2023-02-11T00:51:15;99924.42;;;-3.04;85.6
63691;BME280;49837;57.280;27.070;2023-02-11T00:52:18;99921.37;;;-3.03;85.6
63691;BME280;49837;57.280;27.070;2023-02-11T00:53:16;99918.28;;;-3.06;85.83
63691;BME280;49837;57.280;27.070;2023-02-11T00:54:16;99914.84;;;-3.02;85.63
63691;BME280;49837;57.280;27.070;2023-02-11T00:55:17;99916.84;;;-3.01;85.67
63691;BME280;49837;57.280;27.070;2023-02-11T00:56:17;99908.55;;;-3.0;85.47
63691;BME280;49837;57.280;27.070;2023-02-11T00:57:17;99907.26;;;-2.99;85.53
63691;BME280;49837;57.280;27.070;2023-02-11T00:58:18;99904.4;;;-2.98;85.5
63691;BME280;49837;57.280;27.070;2023-02-11T00:59:18;99902.16;;;-2.96;85.58
63691;BME280;49837;57.280;27.070;2023-02-11T01:00:19;99900.43;;;-2.93;85.44
63691;BME280;49837;57.280;27.070;2023-02-11T01:01:19;99895.84;;;-2.94;85.4
63691;BME280;49837;57.280;27.070;2023-02-11T01:02:20;99897.64;;;-2.97;85.46
63691;BME280;49837;57.280;27.070;2023-02-11T01:03:20;99900.62;;;-2.99;85.55
63691;BME280;49837;57.280;27.070;2023-02-11T01:04:26;99895.43;;;-2.99;85.56
63691;BME280;49837;57.280;27.070;2023-02-11T01:05:24;99891.88;;;-3.01;85.69
63691;BME280;49837;57.280;27.070;2023-02-11T01:06:24;99888.55;;;-2.95;85.76
63691;BME280;49837;57.280;27.070;2023-02-11T01:07:25;99887.33;;;-2.95;85.71
63691;BME280;49837;57.280;27.070;2023-02-11T01:08:25;99886.71;;;-2.97;85.8
63691;BME280;49837;57.280;27.070;2023-02-11T01:09:25;99882.27;;;-2.95;85.84
63691;BME280;49837;57.280;27.070;2023-02-11T01:10:25;99881.92;;;-2.92;85.82
63691;BME280;49837;57.280;27.070;2023-02-11T01:11:26;99876.02;;;-2.97;85.92
63691;BME280;49837;57.280;27.070;2023-02-11T01:12:26;99874.55;;;-2.94;85.83
63691;BME280;49837;57.280;27.070;2023-02-11T01:13:28;99869.81;;;-2.94;85.88
63691;BME280;49837;57.280;27.070;2023-02-11T01:14:27;99869.17;;;-2.93;85.89
63691;BME280;49837;57.280;27.070;2023-02-11T01:15:28;99866.52;;;-2.91;85.86
63691;BME280;49837;57.280;27.070;2023-02-11T01:16:28;99859.81;;;-2.88;85.84
63691;BME280;49837;57.280;27.070;2023-02-11T01:17:28;99861.7;;;-2.91;85.86
63691;BME280;49837;57.280;27.070;2023-02-11T01:18:29;99862.7;;;-2.9;85.95
63691;BME280;49837;57.280;27.070;2023-02-11T01:19:29;99854.85;;;-2.82;85.82
63691;BME280;49837;57.280;27.070;2023-02-11T01:20:29;99844.52;;;-2.86;85.99
63691;BME280;49837;57.280;27.070;2023-02-11T01:21:30;99845.67;;;-2.89;86.26
63691;BME280;49837;57.280;27.070;2023-02-11T01:22:30;99838.81;;;-2.88;86.4
63691;BME280;49837;57.280;27.070;2023-02-11T01:23:31;99837.73;;;-2.85;86.42
63691;BME280;49837;57.280;27.070;2023-02-11T01:24:31;99837.2;;;-2.87;86.43
63691;BME280;49837;57.280;27.070;2023-02-11T01:25:31;99830.63;;;-2.86;86.34
63691;BME280;49837;57.280;27.070;2023-02-11T01:26:32;99826.02;;;-2.79;86.19
63691;BME280;49837;57.280;27.070;2023-02-11T01:27:32;99825.59;;;-2.8;86.15
63691;BME280;49837;57.280;27.070;2023-02-11T01:28:33;99818.67;;;-2.79;86.19
63691;BME280;49837;57.280;27.070;2023-02-11T01:29:33;99817.17;;;-2.72;86.1
63691;BME280;49837;57.280;27.070;2023-02-11T01:30:33;99819.02;;;-2.74;86.01
63691;BME280;49837;57.280;27.070;2023-02-11T01:31:35;99814.08;;;-2.8;86.16
63691;BME280;49837;57.280;27.070;2023-02-11T01:32:34;99810.63;;;-2.81;86.38
63691;BME280;49837;57.280;27.070;2023-02-11T01:33:35;99806.24;;;-2.8;86.49
63691;BME280;49837;57.280;27.070;2023-02-11T01:34:35;99801.69;;;-2.74;86.37
63691;BME280;49837;57.280;27.070;2023-02-11T01:35:37;99804.34;;;-2.69;86.23
63691;BME280;49837;57.280;27.070;2023-02-11T01:36:36;99795.31;;;-2.71;86.18
63691;BME280;49837;57.280;27.070;2023-02-11T01:37:36;99791.67;;;-2.68;86.23
63691;BME280;49837;57.280;27.070;2023-02-11T01:38:37;99796.11;;;-2.72;86.37
63691;BME280;49837;57.280;27.070;2023-02-11T01:39:37;99791.5;;;-2.7;86.34
63691;BME280;49837;57.280;27.070;2023-02-11T01:40:38;99790.97;;;-2.68;86.31
63691;BME280;49837;57.280;27.070;2023-02-11T01:41:38;99788.99;;;-2.69;86.41
63691;BME280;49837;57.280;27.070;2023-02-11T01:42:39;99782.05;;;-2.65;86.35
63691;BME280;49837;57.280;27.070;2023-02-11T01:43:44;99781.19;;;-2.67;86.54
63691;BME280;49837;57.280;27.070;2023-02-11T01:44:42;99781.77;;;-2.71;86.73
63691;BME280;49837;57.280;27.070;2023-02-11T01:46:00;99775.05;;;-2.72;86.8
63691;BME280;49837;57.280;27.070;2023-02-11T01:46:44;99771.53;;;-2.67;86.79
63691;BME280;49837;57.280;27.070;2023-02-11T01:47:44;99766.54;;;-2.63;86.61
63691;BME280;49837;57.280;27.070;2023-02-11T01:48:48;99762.61;;;-2.65;86.76
63691;BME280;49837;57.280;27.070;2023-02-11T01:49:52;99758.14;;;-2.67;86.78
63691;BME280;49837;57.280;27.070;2023-02-11T01:50:49;99761.41;;;-2.68;86.81
63691;BME280;49837;57.280;27.070;2023-02-11T01:52:49;99756.39;;;-2.64;86.88
63691;BME280;49837;57.280;27.070;2023-02-11T01:53:50;99750.78;;;-2.59;86.74
63691;BME280;49837;57.280;27.070;2023-02-11T01:54:52;99748.62;;;-2.61;86.87
63691;BME280;49837;57.280;27.070;2023-02-11T01:55:51;99746.28;;;-2.65;87.01
63691;BME280;49837;57.280;27.070;2023-02-11T01:56:52;99745.6;;;-2.62;87.02
63691;BME280;49837;57.280;27.070;2023-02-11T01:57:53;99749.08;;;-2.58;86.92
63691;BME280;49837;57.280;27.070;2023-02-11T01:58:55;99747.75;;;-2.59;86.8
63691;BME280;49837;57.280;27.070;2023-02-11T02:00:11;99748.39;;;-2.55;86.79
63691;BME280;49837;57.280;27.070;2023-02-11T02:01:02;99747.97;;;-2.5;86.5
63691;BME280;49837;57.280;27.070;2023-02-11T02:02:05;99740.84;;;-2.47;86.46
63691;BME280;49837;57.280;27.070;2023-02-11T02:03:11;99731.67;;;-2.48;86.42
63691;BME280;49837;57.280;27.070;2023-02-11T02:04:07;99728.84;;;-2.51;86.47
63691;BME280;49837;57.280;27.070;2023-02-11T02:06:18;99725.27;;;-2.47;86.62
63691;BME280;49837;57.280;27.070;2023-02-11T02:07:18;99718.66;;;-2.45;86.74
63691;BME280;49837;57.280;27.070;2023-02-11T02:09:24;99710.09;;;-2.49;86.96
63691;BME280;49837;57.280;27.070;2023-02-11T02:10:24;99706.77;;;-2.54;87.16
63691;BME280;49837;57.280;27.070;2023-02-11T02:11:26;99703.06;;;-2.56;87.43
63691;BME280;49837;57.280;27.070;2023-02-11T02:12:24;99697.08;;;-2.57;87.65
63691;BME280;49837;57.280;27.070;2023-02-11T02:13:25;99693.93;;;-2.55;87.74
63691;BME280;49837;57.280;27.070;2023-02-11T02:14:24;99690.28;;;-2.54;87.86
63691;BME280;49837;57.280;27.070;2023-02-11T02:16:31;99687.97;;;-2.5;88.19
63691;BME280;49837;57.280;27.070;2023-02-11T02:31:38;99611.36;;;-2.63;91.98
63691;BME280;49837;57.280;27.070;2023-02-11T02:39:37;99577.69;;;-2.59;92.75
63691;BME280;49837;57.280;27.070;2023-02-11T02:40:44;99572.78;;;-2.52;92.42
63691;BME280;49837;57.280;27.070;2023-02-11T02:41:38;99565.34;;;-2.54;92.49
63691;BME280;49837;57.280;27.070;2023-02-11T02:42:39;99566.36;;;-2.52;92.5
63691;BME280;49837;57.280;27.070;2023-02-11T02:43:45;99560.22;;;-2.53;92.64
63691;BME280;49837;57.280;27.070;2023-02-11T02:44:38;99554.71;;;-2.55;92.87
63691;BME280;49837;57.280;27.070;2023-02-11T02:45:39;99556.03;;;-2.54;93.01
63691;BME280;49837;57.280;27.070;2023-02-11T02:46:39;99546.42;;;-2.51;93.19
63691;BME280;49837;57.280;27.070;2023-02-11T02:47:39;99546.41;;;-2.48;93.19
63691;BME280;49837;57.280;27.070;2023-02-11T02:48:40;99540.59;;;-2.49;93.37
63691;BME280;49837;57.280;27.070;2023-02-11T02:49:40;99538.13;;;-2.5;93.47
63691;BME280;49837;57.280;27.070;2023-02-11T02:50:40;99528.92;;;-2.55;93.76
63691;BME280;49837;57.280;27.070;2023-02-11T03:10:27;99444.77;;;-2.53;96.29
63691;BME280;49837;57.280;27.070;2023-02-11T03:11:22;99442.16;;;-2.53;96.39
63691;BME280;49837;57.280;27.070;2023-02-11T03:12:22;99439.78;;;-2.53;96.57
63691;BME280;49837;57.280;27.070;2023-02-11T03:13:26;99440.19;;;-2.53;96.52
63691;BME280;49837;57.280;27.070;2023-02-11T03:14:27;99438.61;;;-2.55;96.61
63691;BME280;49837;57.280;27.070;2023-02-11T03:15:27;99439.28;;;-2.52;96.66
63691;BME280;49837;57.280;27.070;2023-02-11T03:16:27;99431.88;;;-2.58;96.77
63691;BME280;49837;57.280;27.070;2023-02-11T03:17:27;99425.92;;;-2.58;97.05
63691;BME280;49837;57.280;27.070;2023-02-11T03:18:28;99424.49;;;-2.55;97.11
63691;BME280;49837;57.280;27.070;2023-02-11T03:20:35;99414.95;;;-2.53;97.11
63691;BME280;49837;57.280;27.070;2023-02-11T03:21:35;99408.28;;;-2.52;96.99
63691;BME280;49837;57.280;27.070;2023-02-11T03:22:40;99402.19;;;-2.47;96.84
63691;BME280;49837;57.280;27.070;2023-02-11T03:23:41;99392.39;;;-2.55;96.94
63691;BME280;49837;57.280;27.070;2023-02-11T03:24:41;99391.17;;;-2.56;97.13
63691;BME280;49837;57.280;27.070;2023-02-11T03:25:45;99379.87;;;-2.58;97.26
63691;BME280;49837;57.280;27.070;2023-02-11T03:26:52;99379.52;;;-2.54;97.35
63691;BME280;49837;57.280;27.070;2023-02-11T03:27:51;99378.98;;;-2.57;97.75
63691;BME280;49837;57.280;27.070;2023-02-11T03:29:02;99363.81;;;-2.55;97.91
63691;BME280;49837;57.280;27.070;2023-02-11T03:30:00;99366.45;;;-2.54;98.01
63691;BME280;49837;57.280;27.070;2023-02-11T03:32:58;99364.95;;;-2.49;98.2
63691;BME280;49837;57.280;27.070;2023-02-11T03:34:07;99359.08;;;-2.46;98.2
63691;BME280;49837;57.280;27.070;2023-02-11T03:38:15;99333.86;;;-2.37;98.43
63691;BME280;49837;57.280;27.070;2023-02-11T03:39:18;99342.45;;;-2.43;98.49
63691;BME280;49837;57.280;27.070;2023-02-11T03:41:18;99321.27;;;-2.31;98.58
63691;BME280;49837;57.280;27.070;2023-02-11T03:42:21;99323.86;;;-2.31;98.47
63691;BME280;49837;57.280;27.070;2023-02-11T03:43:24;99318.95;;;-2.34;98.58
63691;BME280;49837;57.280;27.070;2023-02-11T03:44:24;99321.95;;;-2.25;98.55
63691;BME280;49837;57.280;27.070;2023-02-11T03:45:26;99315.73;;;-2.26;98.5
63691;BME280;49837;57.280;27.070;2023-02-11T03:46:31;99298.42;;;-2.36;98.69
63691;BME280;49837;57.280;27.070;2023-02-11T03:47:31;99296.84;;;-2.4;99.03
63691;BME280;49837;57.280;27.070;2023-02-11T03:48:38;99291.09;;;-2.34;99.18
63691;BME280;49837;57.280;27.070;2023-02-11T03:49:35;99281.56;;;-2.31;99.23
63691;BME280;49837;57.280;27.070;2023-02-11T03:50:35;99285.22;;;-2.25;99.11
63691;BME280;49837;57.280;27.070;2023-02-11T03:51:35;99276.38;;;-2.24;99.02
63691;BME280;49837;57.280;27.070;2023-02-11T03:52:36;99267.42;;;-2.22;99.01
63691;BME280;49837;57.280;27.070;2023-02-11T03:53:36;99268.02;;;-2.17;99.02
63691;BME280;49837;57.280;27.070;2023-02-11T03:54:37;99267.47;;;-2.15;98.98
63691;BME280;49837;57.280;27.070;2023-02-11T03:55:38;99262.56;;;-2.14;99.01
63691;BME280;49837;57.280;27.070;2023-02-11T03:56:48;99254.01;;;-2.11;99.14
63691;BME280;49837;57.280;27.070;2023-02-11T03:57:40;99265.78;;;-2.08;99.21
63691;BME280;49837;57.280;27.070;2023-02-11T03:58:43;99243.3;;;-2.11;99.26
63691;BME280;49837;57.280;27.070;2023-02-11T04:00:44;99243.14;;;-2.11;99.48
63691;BME280;49837;57.280;27.070;2023-02-11T04:01:44;99231.3;;;-2.12;99.65
63691;BME280;49837;57.280;27.070;2023-02-11T04:02:45;99239.42;;;-2.05;99.72
63691;BME280;49837;57.280;27.070;2023-02-11T04:03:45;99234.77;;;-2.03;99.62
63691;BME280;49837;57.280;27.070;2023-02-11T04:04:46;99230.12;;;-2.05;99.65
63691;BME280;49837;57.280;27.070;2023-02-11T04:05:46;99215.78;;;-2.08;99.82
63691;BME280;49837;57.280;27.070;2023-02-11T04:06:46;99213.88;;;-2.02;99.86
63691;BME280;49837;57.280;27.070;2023-02-11T04:07:46;99220.74;;;-2.01;99.86
63691;BME280;49837;57.280;27.070;2023-02-11T04:08:47;99211.84;;;-2.01;99.88
63691;BME280;49837;57.280;27.070;2023-02-11T04:09:47;99212.0;;;-2.01;99.96
63691;BME280;49837;57.280;27.070;2023-02-11T04:10:47;99217.27;;;-1.95;99.97
63691;BME280;49837;57.280;27.070;2023-02-11T04:11:48;99195.46;;;-1.93;99.99
63691;BME280;49837;57.280;27.070;2023-02-11T04:12:48;99194.86;;;-1.93;99.93
63691;BME280;49837;57.280;27.070;2023-02-11T04:13:48;99185.16;;;-1.94;100.0
63691;BME280;49837;57.280;27.070;2023-02-11T04:14:49;99183.11;;;-1.92;100.0
63691;BME280;49837;57.280;27.070;2023-02-11T04:15:49;99178.48;;;-1.86;100.0
63691;BME280;49837;57.280;27.070;2023-02-11T04:16:49;99166.64;;;-1.82;100.0
63691;BME280;49837;57.280;27.070;2023-02-11T04:17:50;99166.74;;;-1.8;100.0
63691;BME280;49837;57.280;27.070;2023-02-11T04:18:50;99162.27;;;-1.76;99.96
63691;BME280;49837;57.280;27.070;2023-02-11T04:19:50;99155.06;;;-1.79;99.99
63691;BME280;49837;57.280;27.070;2023-02-11T04:20:51;99145.33;;;-1.8;100.0
63691;BME280;49837;57.280;27.070;2023-02-11T04:21:51;99145.0;;;-1.79;100.0
63691;BME280;49837;57.280;27.070;2023-02-11T04:22:51;99148.62;;;-1.75;100.0
63691;BME280;49837;57.280;27.070;2023-02-11T04:23:52;99154.18;;;-1.7;100.0
63691;BME280;49837;57.280;27.070;2023-02-11T04:24:52;99148.95;;;-1.64;100.0
63691;BME280;49837;57.280;27.070;2023-02-11T04:25:52;99153.56;;;-1.62;99.97
63691;BME280;49837;57.280;27.070;2023-02-11T04:26:53;99154.45;;;-1.6;99.95
63691;BME280;49837;57.280;27.070;2023-02-11T04:27:53;99145.7;;;-1.65;99.97
63691;BME280;49837;57.280;27.070;2023-02-11T04:28:54;99138.5;;;-1.69;100.0
63691;BME280;49837;57.280;27.070;2023-02-11T04:29:54;99121.47;;;-1.73;100.0
63691;BME280;49837;57.280;27.070;2023-02-11T04:30:54;99118.94;;;-1.7;100.0
63691;BME280;49837;57.280;27.070;2023-02-11T04:31:54;99121.17;;;-1.66;100.0
63691;BME280;49837;57.280;27.070;2023-02-11T04:32:57;99122.64;;;-1.64;100.0
63691;BME280;49837;57.280;27.070;2023-02-11T04:33:55;99115.11;;;-1.67;100.0
63691;BME280;49837;57.280;27.070;2023-02-11T04:34:55;99102.61;;;-1.67;100.0
63691;BME280;49837;57.280;27.070;2023-02-11T04:35:56;99108.5;;;-1.67;100.0
63691;BME280;49837;57.280;27.070;2023-02-11T04:36:56;99104.73;;;-1.64;100.0
63691;BME280;49837;57.280;27.070;2023-02-11T04:37:56;99100.08;;;-1.65;100.0
63691;BME280;49837;57.280;27.070;2023-02-11T04:38:57;99088.31;;;-1.62;100.0
63691;BME280;49837;57.280;27.070;2023-02-11T04:39:57;99083.33;;;-1.58;100.0
63691;BME280;49837;57.280;27.070;2023-02-11T04:40:57;99092.97;;;-1.61;100.0
63691;BME280;49837;57.280;27.070;2023-02-11T04:41:57;99083.67;;;-1.55;100.0
63691;BME280;49837;57.280;27.070;2023-02-11T04:42:58;99074.48;;;-1.6;100.0
63691;BME280;49837;57.280;27.070;2023-02-11T04:43:58;99067.47;;;-1.57;100.0
63691;BME280;49837;57.280;27.070;2023-02-11T04:44:58;99057.99;;;-1.59;100.0
63691;BME280;49837;57.280;27.070;2023-02-11T04:45:59;99060.85;;;-1.57;100.0
63691;BME280;49837;57.280;27.070;2023-02-11T04:46:59;99054.4;;;-1.57;100.0
63691;BME280;49837;57.280;27.070;2023-02-11T04:48:01;99049.89;;;-1.57;100.0
63691;BME280;49837;57.280;27.070;2023-02-11T04:49:00;99056.42;;;-1.54;100.0
63691;BME280;49837;57.280;27.070;2023-02-11T04:50:00;99040.81;;;-1.53;100.0
63691;BME280;49837;57.280;27.070;2023-02-11T04:51:01;99046.95;;;-1.54;100.0
63691;BME280;49837;57.280;27.070;2023-02-11T04:52:01;99046.54;;;-1.55;100.0
63691;BME280;49837;57.280;27.070;2023-02-11T04:53:01;99035.83;;;-1.55;100.0
63691;BME280;49837;57.280;27.070;2023-02-11T04:54:01;99035.67;;;-1.53;100.0
63691;BME280;49837;57.280;27.070;2023-02-11T04:55:03;99032.22;;;-1.55;100.0
63691;BME280;49837;57.280;27.070;2023-02-11T04:56:02;99025.7;;;-1.49;100.0
63691;BME280;49837;57.280;27.070;2023-02-11T04:57:02;99019.23;;;-1.45;100.0
63691;BME280;49837;57.280;27.070;2023-02-11T04:58:03;99020.62;;;-1.47;100.0
63691;BME280;49837;57.280;27.070;2023-02-11T04:59:04;99007.46;;;-1.46;100.0
63691;BME280;49837;57.280;27.070;2023-02-11T05:00:05;99007.87;;;-1.39;100.0
63691;BME280;49837;57.280;27.070;2023-02-11T05:01:08;99005.83;;;-1.41;100.0
63691;BME280;49837;57.280;27.070;2023-02-11T05:02:06;98993.95;;;-1.45;100.0
63691;BME280;49837;57.280;27.070;2023-02-11T05:03:07;98994.78;;;-1.45;100.0
63691;BME280;49837;57.280;27.070;2023-02-11T05:04:07;98983.64;;;-1.42;100.0
63691;BME280;49837;57.280;27.070;2023-02-11T05:05:07;98977.09;;;-1.38;100.0
63691;BME280;49837;57.280;27.070;2023-02-11T05:06:09;98971.64;;;-1.39;100.0
63691;BME280;49837;57.280;27.070;2023-02-11T05:07:08;98968.37;;;-1.35;100.0
63691;BME280;49837;57.280;27.070;2023-02-11T05:08:09;98965.91;;;-1.33;100.0
63691;BME280;49837;57.280;27.070;2023-02-11T05:09:10;98960.19;;;-1.32;100.0
63691;BME280;49837;57.280;27.070;2023-02-11T05:10:09;98962.72;;;-1.28;100.0
63691;BME280;49837;57.280;27.070;2023-02-11T05:11:20;98952.23;;;-1.31;100.0
63691;BME280;49837;57.280;27.070;2023-02-11T05:12:12;98956.72;;;-1.31;100.0
63691;BME280;49837;57.280;27.070;2023-02-11T05:13:13;98955.41;;;-1.3;100.0
63691;BME280;49837;57.280;27.070;2023-02-11T05:14:13;98945.12;;;-1.28;100.0
63691;BME280;49837;57.280;27.070;2023-02-11T05:15:14;98947.64;;;-1.25;100.0
63691;BME280;49837;57.280;27.070;2023-02-11T05:16:15;98944.78;;;-1.26;100.0
63691;BME280;49837;57.280;27.070;2023-02-11T05:17:14;98950.26;;;-1.22;100.0
63691;BME280;49837;57.280;27.070;2023-02-11T05:18:14;98939.95;;;-1.22;100.0
63691;BME280;49837;57.280;27.070;2023-02-11T05:19:15;98937.49;;;-1.19;100.0
63691;BME280;49837;57.280;27.070;2023-02-11T05:20:15;98935.03;;;-1.17;100.0
63691;BME280;49837;57.280;27.070;2023-02-11T05:21:17;98932.5;;;-1.14;100.0
63691;BME280;49837;57.280;27.070;2023-02-11T05:22:16;98919.14;;;-1.14;100.0
63691;BME280;49837;57.280;27.070;2023-02-11T05:23:16;98917.1;;;-1.14;100.0
63691;BME280;49837;57.280;27.070;2023-02-11T05:24:16;98910.39;;;-1.14;100.0
63691;BME280;49837;57.280;27.070;2023-02-11T05:25:17;98903.02;;;-1.11;100.0
63691;BME280;49837;57.280;27.070;2023-02-11T05:26:17;98904.65;;;-1.07;100.0
63691;BME280;49837;57.280;27.070;2023-02-11T05:27:17;98909.8;;;-1.09;100.0
63691;BME280;49837;57.280;27.070;2023-02-11T05:28:18;98906.37;;;-1.09;100.0
63691;BME280;49837;57.280;27.070;2023-02-11T05:29:18;98907.92;;;-1.06;100.0
63691;BME280;49837;57.280;27.070;2023-02-11T05:30:18;98897.11;;;-1.02;100.0
63691;BME280;49837;57.280;27.070;2023-02-11T05:31:19;98892.5;;;-0.98;100.0
63691;BME280;49837;57.280;27.070;2023-02-11T05:32:19;98893.33;;;-0.95;100.0
63691;BME280;49837;57.280;27.070;2023-02-11T05:33:20;98895.34;;;-0.94;100.0
63691;BME280;49837;57.280;27.070;2023-02-11T05:34:20;98897.31;;;-0.93;100.0
63691;BME280;49837;57.280;27.070;2023-02-11T05:35:20;98892.89;;;-0.94;100.0
63691;BME280;49837;57.280;27.070;2023-02-11T05:36:20;98892.06;;;-0.9;100.0
63691;BME280;49837;57.280;27.070;2023-02-11T05:37:21;98883.16;;;-0.89;100.0
63691;BME280;49837;57.280;27.070;2023-02-11T05:38:21;98890.04;;;-0.91;100.0
63691;BME280;49837;57.280;27.070;2023-02-11T05:39:21;98880.05;;;-0.9;100.0
63691;BME280;49837;57.280;27.070;2023-02-11T05:40:22;98889.86;;;-0.88;100.0
63691;BME280;49837;57.280;27.070;2023-02-11T05:41:22;98871.98;;;-0.87;100.0
63691;BME280;49837;57.280;27.070;2023-02-11T05:42:22;98877.15;;;-0.86;100.0
63691;BME280;49837;57.280;27.070;2023-02-11T05:43:23;98875.36;;;-0.86;100.0
63691;BME280;49837;57.280;27.070;2023-02-11T05:44:23;98870.37;;;-0.87;100.0
63691;BME280;49837;57.280;27.070;2023-02-11T05:45:23;98870.19;;;-0.86;100.0
63691;BME280;49837;57.280;27.070;2023-02-11T05:46:24;98866.41;;;-0.84;100.0
63691;BME280;49837;57.280;27.070;2023-02-11T05:47:24;98875.89;;;-0.79;100.0
63691;BME280;49837;57.280;27.070;2023-02-11T05:48:24;98858.52;;;-0.74;100.0
63691;BME280;49837;57.280;27.070;2023-02-11T05:49:25;98864.55;;;-0.68;100.0
63691;BME280;49837;57.280;27.070;2023-02-11T05:50:25;98867.58;;;-0.69;100.0
63691;BME280;49837;57.280;27.070;2023-02-11T05:51:25;98872.81;;;-0.65;100.0
63691;BME280;49837;57.280;27.070;2023-02-11T05:52:26;98867.9;;;-0.65;100.0
63691;BME280;49837;57.280;27.070;2023-02-11T05:53:26;98868.89;;;-0.69;100.0
63691;BME280;49837;57.280;27.070;2023-02-11T05:54:26;98858.06;;;-0.67;100.0
63691;BME280;49837;57.280;27.070;2023-02-11T05:55:27;98859.04;;;-0.66;100.0
63691;BME280;49837;57.280;27.070;2023-02-11T05:56:27;98852.38;;;-0.63;100.0
63691;BME280;49837;57.280;27.070;2023-02-11T05:57:27;98851.81;;;-0.58;100.0
63691;BME280;49837;57.280;27.070;2023-02-11T05:58:28;98851.29;;;-0.55;100.0
63691;BME280;49837;57.280;27.070;2023-02-11T05:59:28;98848.67;;;-0.56;100.0
63691;BME280;49837;57.280;27.070;2023-02-11T06:00:28;98848.73;;;-0.53;100.0
63691;BME280;49837;57.280;27.070;2023-02-11T06:01:29;98849.06;;;-0.54;100.0
63691;BME280;49837;57.280;27.070;2023-02-11T06:02:29;98838.09;;;-0.53;100.0
63691;BME280;49837;57.280;27.070;2023-02-11T06:03:29;98837.98;;;-0.52;100.0
63691;BME280;49837;57.280;27.070;2023-02-11T06:04:30;98832.12;;;-0.55;100.0
63691;BME280;49837;57.280;27.070;2023-02-11T06:05:30;98824.89;;;-0.53;100.0
63691;BME280;49837;57.280;27.070;2023-02-11T06:06:30;98822.09;;;-0.5;100.0
63691;BME280;49837;57.280;27.070;2023-02-11T06:07:31;98823.4;;;-0.5;100.0
63691;BME280;49837;57.280;27.070;2023-02-11T06:08:31;98816.41;;;-0.55;100.0
63691;BME280;49837;57.280;27.070;2023-02-11T06:09:31;98817.04;;;-0.53;100.0
63691;BME280;49837;57.280;27.070;2023-02-11T06:10:33;98810.73;;;-0.51;100.0